Time;durP1;ratioP1;P1;durP2;ratioP2;P2;SDS_P1;SDS_P2;PMS_P1;PMS_P2;Temp;Humidity;BMP_temperature;BMP_pressure;BME280_temperature;BME280_humidity;BME280_pressure;Samples;Min_cycle;Max_cycle;Signal;HPM_P1;HPM_P2
2023/12/09 02:33:52;;;;;;;22.52;13.30;;;;;;;5.07;87.74;96568.06;4467558;23;20050;-81
2023/12/09 02:36:22;;;;;;;20.63;12.68;;;;;;;5.05;88.18;96567.38;4959019;28;20115;-81
2023/12/09 02:38:51;;;;;;;20.55;13.00;;;;;;;5.07;88.47;96572.38;4959040;29;20071;-81
2023/12/09 02:41:20;;;;;;;20.35;13.05;;;;;;;5.07;88.46;96565.47;4958376;28;20067;-81
2023/12/09 02:43:48;;;;;;;19.20;12.25;;;;;;;5.09;88.33;96570.47;4959421;28;20036;-81
2023/12/09 02:46:16;;;;;;;20.20;11.45;;;;;;;5.10;88.02;96565.16;4958808;29;20060;-81
2023/12/09 02:51:27;;;;;;;21.10;13.03;;;;;;;5.09;87.60;96560.13;5286029;23;20060;-81
2023/12/09 02:53:55;;;;;;;18.17;12.00;;;;;;;5.08;88.10;96561.91;4959078;28;20290;-82
2023/12/09 02:56:23;;;;;;;19.55;11.90;;;;;;;5.10;88.12;96559.19;4959221;29;20031;-81
2023/12/09 02:58:51;;;;;;;18.95;11.50;;;;;;;5.12;88.31;96550.31;4959237;28;20040;-82
2023/12/09 03:01:19;;;;;;;16.98;10.50;;;;;;;5.15;88.05;96551.78;4959075;28;20034;-81
2023/12/09 03:03:46;;;;;;;16.35;10.48;;;;;;;5.14;87.93;96545.00;4959016;28;20054;-81
2023/12/09 03:06:14;;;;;;;16.58;10.48;;;;;;;5.14;87.68;96539.81;4958759;28;20071;-81
2023/12/09 03:08:43;;;;;;;20.30;11.27;;;;;;;5.13;87.46;96535.59;4958721;28;20052;-82
2023/12/09 03:11:11;;;;;;;18.27;11.38;;;;;;;5.11;87.54;96538.31;4959383;29;20233;-81
2023/12/09 03:13:39;;;;;;;16.02;10.40;;;;;;;5.11;87.62;96532.34;4959046;29;20056;-81
2023/12/09 03:16:07;;;;;;;16.63;10.05;;;;;;;5.10;87.32;96538.50;4958844;28;20063;-81
2023/12/09 03:18:35;;;;;;;17.50;10.32;;;;;;;5.09;87.42;96531.69;4958531;28;20069;-81
2023/12/09 03:21:03;;;;;;;18.27;10.20;;;;;;;5.09;87.15;96532.47;4958721;29;20051;-81
2023/12/09 03:23:31;;;;;;;15.73;10.23;;;;;;;5.09;87.82;96526.50;4958756;28;20103;-81
2023/12/09 03:26:00;;;;;;;15.95;9.52;;;;;;;5.11;88.63;96537.50;4958438;28;20067;-81
2023/12/09 03:28:27;;;;;;;17.00;10.85;;;;;;;5.12;88.74;96532.22;4958483;28;20052;-82
2023/12/09 03:30:55;;;;;;;19.40;10.88;;;;;;;5.09;87.50;96518.75;4958828;29;20040;-81
2023/12/09 03:33:23;;;;;;;17.05;10.20;;;;;;;5.06;87.22;96521.66;4959396;28;20076;-81
2023/12/09 03:35:51;;;;;;;17.17;9.88;;;;;;;5.03;87.36;96521.94;4958759;28;20051;-81
2023/12/09 03:38:18;;;;;;;20.48;11.40;;;;;;;5.01;87.17;96514.34;4958490;28;20042;-81
2023/12/09 03:40:46;;;;;;;16.63;10.27;;;;;;;5.02;87.38;96515.94;4958861;28;20031;-81
2023/12/09 03:43:15;;;;;;;18.55;11.70;;;;;;;5.00;87.15;96511.91;4958644;28;20056;-81
2023/12/09 03:45:43;;;;;;;19.15;11.40;;;;;;;4.99;86.92;96505.13;4958557;28;20072;-81
2023/12/09 03:48:11;;;;;;;15.82;11.40;;;;;;;4.96;86.86;96501.03;4958114;29;20031;-82
2023/12/09 03:50:39;;;;;;;14.63;10.20;;;;;;;4.97;87.08;96491.53;4958643;29;20059;-81
2023/12/09 03:53:06;;;;;;;16.50;10.00;;;;;;;4.94;86.90;96493.44;4962009;28;20043;-82
2023/12/09 03:55:34;;;;;;;15.00;9.73;;;;;;;4.92;86.81;96495.38;4962222;28;20047;-81
2023/12/09 03:58:02;;;;;;;13.73;9.95;;;;;;;4.90;86.96;96496.47;4961864;28;20056;-82
2023/12/09 04:00:31;;;;;;;14.95;9.15;;;;;;;4.89;86.79;96500.00;4962136;28;20503;-81
2023/12/09 04:02:59;;;;;;;15.20;9.52;;;;;;;4.89;86.70;96505.97;4962154;28;20058;-81
2023/12/09 04:05:27;;;;;;;15.57;10.02;;;;;;;4.91;86.85;96501.47;4962147;28;20111;-81
2023/12/09 04:07:54;;;;;;;15.95;9.45;;;;;;;4.94;87.24;96498.63;4961188;29;20095;-81
2023/12/09 04:10:22;;;;;;;14.20;9.00;;;;;;;4.95;87.53;96495.06;4961542;29;20047;-82
2023/12/09 04:12:50;;;;;;;17.00;9.43;;;;;;;4.98;88.04;96499.13;4961453;28;20048;-81
2023/12/09 04:15:17;;;;;;;13.75;9.25;;;;;;;5.02;88.19;96497.84;4961457;28;20042;-81
2023/12/09 04:17:47;;;;;;;13.25;8.77;;;;;;;5.05;88.17;96497.56;4961123;29;20071;-82
2023/12/09 04:20:14;;;;;;;12.93;8.30;;;;;;;5.06;87.77;96500.97;4961867;29;20091;-81
2023/12/09 04:22:42;;;;;;;10.40;7.43;;;;;;;5.07;87.74;96498.25;4961693;29;20059;-83
2023/12/09 04:25:10;;;;;;;7.93;6.15;;;;;;;5.10;87.41;96502.28;4961336;28;20062;-81
2023/12/09 04:27:38;;;;;;;9.68;6.15;;;;;;;5.08;87.19;96499.03;4960869;28;20056;-82
2023/12/09 04:30:08;;;;;;;12.02;6.43;;;;;;;5.07;87.19;96503.41;4961260;29;20067;-81
2023/12/09 04:32:36;;;;;;;12.43;7.40;;;;;;;5.02;86.55;96495.28;4960981;29;20117;-81
2023/12/09 04:35:08;;;;;;;9.15;6.68;;;;;;;4.98;86.63;96493.94;4961494;28;20040;-82
2023/12/09 04:37:36;;;;;;;10.85;6.18;;;;;;;4.97;86.93;96491.53;4961382;28;20051;-81
2023/12/09 04:40:05;;;;;;;9.85;6.28;;;;;;;4.94;86.94;96488.28;4961284;28;20039;-81
2023/12/09 04:42:32;;;;;;;8.18;5.97;;;;;;;4.93;86.84;96491.81;4960958;29;20055;-82
2023/12/09 04:45:00;;;;;;;11.40;6.82;;;;;;;4.93;87.01;96496.16;4961174;29;20083;-81
2023/12/09 04:47:28;;;;;;;12.48;7.60;;;;;;;4.92;86.64;96495.38;4960913;28;20035;-82
2023/12/09 04:49:56;;;;;;;12.93;7.40;;;;;;;4.90;86.74;96493.91;4961030;28;20071;-81
2023/12/09 04:52:25;;;;;;;11.85;6.88;;;;;;;4.89;87.01;96492.25;4961032;28;20070;-81
2023/12/09 04:54:53;;;;;;;19.67;8.02;;;;;;;4.87;87.07;96492.41;4960863;29;20036;-82
2023/12/09 04:57:21;;;;;;;13.82;7.35;;;;;;;4.88;86.94;96504.38;4961077;28;20039;-81
2023/12/09 04:59:49;;;;;;;19.48;8.55;;;;;;;4.89;87.43;96505.97;4961280;28;20036;-81
2023/12/09 05:02:17;;;;;;;20.08;8.52;;;;;;;4.91;87.27;96514.41;4961075;28;20096;-82
2023/12/09 05:04:47;;;;;;;12.82;7.50;;;;;;;4.93;87.20;96514.25;4960199;28;20075;-81
2023/12/09 05:07:15;;;;;;;13.68;8.02;;;;;;;4.97;87.69;96517.38;4960938;28;20046;-81
2023/12/09 05:09:44;;;;;;;14.10;7.32;;;;;;;5.00;88.11;96512.69;4960855;29;20043;-81
2023/12/09 05:12:11;;;;;;;11.73;7.13;;;;;;;5.02;87.57;96518.53;4961029;28;20071;-81
2023/12/09 05:14:39;;;;;;;11.20;7.13;;;;;;;5.04;87.67;96514.03;4960868;28;20036;-82
2023/12/09 05:17:07;;;;;;;9.63;6.40;;;;;;;5.06;87.70;96512.13;4960722;28;20055;-81
2023/12/09 05:19:34;;;;;;;11.55;6.85;;;;;;;5.09;87.77;96503.25;4960610;28;20039;-82
2023/12/09 05:22:02;;;;;;;8.48;6.30;;;;;;;5.10;87.32;96505.69;4960554;28;20056;-81
2023/12/09 05:24:30;;;;;;;12.73;6.72;;;;;;;5.12;87.98;96510.72;4960538;28;20039;-81
2023/12/09 05:26:59;;;;;;;8.55;6.40;;;;;;;5.12;88.08;96511.53;4960560;28;20090;-81
2023/12/09 05:29:27;;;;;;;12.23;7.95;;;;;;;5.12;87.49;96505.53;4960896;28;20035;-81
2023/12/09 05:31:54;;;;;;;11.10;6.88;;;;;;;5.11;87.09;96509.88;4961275;28;20038;-81
2023/12/09 05:34:22;;;;;;;10.95;6.18;;;;;;;5.09;86.41;96505.81;4961064;28;20039;-81
2023/12/09 05:36:50;;;;;;;12.15;7.40;;;;;;;5.06;86.40;96498.38;4960426;28;20056;-82
2023/12/09 05:39:18;;;;;;;11.57;6.95;;;;;;;5.03;86.02;96498.66;4960168;28;20039;-82
2023/12/09 05:41:46;;;;;;;10.00;6.90;;;;;;;5.03;86.35;96490.91;4959607;28;20123;-82
2023/12/09 05:44:15;;;;;;;10.50;7.43;;;;;;;5.00;86.06;96501.56;4954168;29;20032;-82
2023/12/09 05:46:43;;;;;;;10.48;7.47;;;;;;;5.00;86.34;96491.22;4953965;29;20048;-82
2023/12/09 05:49:11;;;;;;;10.35;7.03;;;;;;;4.99;86.05;96499.94;4958077;29;20043;-81
2023/12/09 05:51:41;;;;;;;10.82;6.78;;;;;;;4.98;86.41;96499.13;4959158;28;20076;-82
2023/12/09 05:54:09;;;;;;;12.50;6.68;;;;;;;4.99;86.61;96499.94;4956737;29;20463;-81
2023/12/09 05:56:37;;;;;;;15.98;7.53;;;;;;;4.98;86.41;96499.13;4958014;29;20071;-82
2023/12/09 05:59:05;;;;;;;10.30;6.63;;;;;;;4.97;86.75;96496.69;4949951;29;20051;-81
2023/12/09 06:01:34;;;;;;;10.02;6.95;;;;;;;4.99;86.85;96494.78;4947910;29;20048;-82
2023/12/09 06:04:02;;;;;;;11.73;7.78;;;;;;;4.97;86.14;96494.91;4949074;29;20076;-82
2023/12/09 06:06:30;;;;;;;12.95;7.55;;;;;;;4.94;85.97;96493.44;4959567;29;20046;-82
2023/12/09 06:08:58;;;;;;;11.45;7.35;;;;;;;4.93;85.96;96491.81;4957307;28;20496;-82
2023/12/09 06:11:26;;;;;;;12.82;7.85;;;;;;;4.94;86.12;96498.63;4957053;29;20111;-82
2023/12/09 06:13:54;;;;;;;11.10;7.82;;;;;;;4.95;86.06;96484.72;4972885;28;20052;-82
2023/12/09 06:16:21;;;;;;;11.43;7.10;;;;;;;4.93;86.26;96484.06;4956353;28;20060;-81
2023/12/09 06:53:55;;;;;;;10.57;6.85;;;;;;;4.66;85.85;96489.31;4920198;29;20060;-82
2023/12/09 06:56:23;;;;;;;9.30;6.15;;;;;;;4.65;85.92;96477.34;4918114;29;20052;-81
2023/12/09 06:58:51;;;;;;;10.02;6.72;;;;;;;4.66;85.87;96473.81;4912418;29;20044;-82
2023/12/09 07:01:21;;;;;;;10.13;6.43;;;;;;;4.63;85.18;96471.50;4909893;29;20492;-81
2023/12/09 07:03:49;;;;;;;10.48;7.15;;;;;;;4.59;85.50;96467.59;4898895;29;20063;-82
2023/12/09 07:06:21;;;;;;;14.77;7.38;;;;;;;4.54;85.48;96447.38;4898748;29;20053;-82
2023/12/09 07:08:48;;;;;;;11.90;7.65;;;;;;;4.51;85.02;96456.25;4906592;29;20135;-82
2023/12/09 07:11:18;;;;;;;14.07;9.02;;;;;;;4.50;85.57;96458.97;4910049;29;20108;-82
2023/12/09 07:13:46;;;;;;;11.43;7.00;;;;;;;4.47;85.70;96457.50;4901181;29;20052;-81
2023/12/09 07:16:14;;;;;;;11.93;6.88;;;;;;;4.45;85.68;96464.56;4903102;29;20075;-82
2023/12/09 07:18:43;;;;;;;11.90;6.65;;;;;;;4.46;85.58;96457.63;4909982;29;20060;-82
2023/12/09 07:21:12;;;;;;;8.88;6.88;;;;;;;4.43;85.51;96452.75;4899178;29;20049;-82
2023/12/09 07:23:40;;;;;;;9.88;7.07;;;;;;;4.39;85.62;96447.06;4914000;29;20493;-82
2023/12/09 07:26:08;;;;;;;10.27;7.15;;;;;;;4.33;85.35;96445.91;4910060;29;20484;-82
2023/12/09 07:28:37;;;;;;;9.73;6.78;;;;;;;4.31;85.53;96462.50;4935952;29;20064;-82
2023/12/09 07:31:05;;;;;;;10.20;7.15;;;;;;;4.30;85.50;96458.28;4921247;29;20064;-83
2023/12/09 07:33:32;;;;;;;9.88;6.80;;;;;;;4.31;86.04;96463.31;4914680;29;20040;-81
2023/12/09 07:36:00;;;;;;;10.20;7.30;;;;;;;4.31;85.90;96459.94;4907577;29;20524;-82
2023/12/09 07:38:28;;;;;;;11.70;6.50;;;;;;;4.30;85.20;96463.44;4919135;29;20052;-82
2023/12/09 07:40:56;;;;;;;10.13;6.78;;;;;;;4.26;85.16;96456.94;4919858;29;20181;-82
2023/12/09 07:43:24;;;;;;;11.13;6.85;;;;;;;4.24;85.32;96458.84;4912275;29;20053;-80
2023/12/09 07:45:52;;;;;;;9.95;6.63;;;;;;;4.21;85.33;96461.75;4906762;29;20052;-81
2023/12/09 07:48:20;;;;;;;37.08;19.17;;;;;;;4.20;85.66;96470.44;4918249;29;20140;-81
2023/12/09 07:50:48;;;;;;;12.98;8.13;;;;;;;4.19;85.66;96468.81;4923603;29;20058;-82
2023/12/09 07:53:16;;;;;;;11.52;7.57;;;;;;;4.17;86.00;96474.13;4939035;29;20083;-81
2023/12/09 07:55:43;;;;;;;10.30;7.20;;;;;;;4.17;85.85;96468.97;4924960;29;20080;-81
2023/12/09 07:58:12;;;;;;;11.15;8.00;;;;;;;4.15;85.32;96465.72;4919772;29;20079;-82
2023/12/09 08:00:39;;;;;;;12.10;7.65;;;;;;;4.12;85.31;96477.13;4920394;29;20044;-82
2023/12/09 08:03:09;;;;;;;12.57;7.88;;;;;;;4.10;85.44;96491.16;4920699;29;20587;-80
2023/12/09 08:05:38;;;;;;;12.95;8.15;;;;;;;4.07;85.09;96474.19;4922454;29;20056;-82
2023/12/09 08:08:06;;;;;;;15.95;8.80;;;;;;;4.04;85.51;96484.78;4926020;29;20123;-83
2023/12/09 08:10:33;;;;;;;11.15;7.30;;;;;;;4.04;85.93;96482.19;4928137;29;20120;-81
2023/12/09 08:13:03;;;;;;;13.55;8.80;;;;;;;4.03;85.79;96483.16;4925078;29;20075;-82
2023/12/09 08:15:38;;;;;;;13.70;9.00;;;;;;;4.05;85.94;96489.00;4925546;29;20051;-84
2023/12/09 08:18:06;;;;;;;13.15;8.35;;;;;;;4.07;85.78;96481.94;4921391;29;20051;-82
2023/12/09 08:20:36;;;;;;;15.57;9.43;;;;;;;4.07;85.81;96486.28;4916184;29;20056;-82
2023/12/09 08:23:04;;;;;;;14.38;8.75;;;;;;;4.04;85.52;96476.22;4914472;29;20071;-82
2023/12/09 08:25:31;;;;;;;13.48;9.10;;;;;;;4.01;85.58;96476.53;4911246;29;20053;-82
2023/12/09 08:27:59;;;;;;;17.05;8.30;;;;;;;3.98;85.66;96464.72;4906483;29;20056;-82
2023/12/09 08:30:27;;;;;;;13.38;8.82;;;;;;;3.94;85.62;96465.97;4906552;29;20127;-82
2023/12/09 08:32:54;;;;;;;13.35;8.38;;;;;;;3.94;86.05;96473.72;4926863;29;20054;-82
2023/12/09 08:35:25;;;;;;;13.02;9.15;;;;;;;3.94;86.07;96467.75;4928980;29;20055;-86
2023/12/09 08:37:55;;;;;;;13.55;9.23;;;;;;;3.93;86.41;96456.59;4938324;29;20060;-82
2023/12/09 08:40:24;;;;;;;11.68;8.35;;;;;;;3.93;86.38;96466.91;5699887;23;20027;-82
2023/12/09 08:42:55;;;;;;;10.98;8.00;;;;;;;3.94;86.52;96472.91;4960592;28;20091;-84
2023/12/09 08:45:24;;;;;;;12.85;8.68;;;;;;;3.94;86.21;96471.13;4960865;29;20060;-84
2023/12/09 08:47:54;;;;;;;13.02;8.23;;;;;;;3.93;86.08;96451.44;4959315;28;20051;-84
2023/12/09 08:50:23;;;;;;;11.02;7.53;;;;;;;3.93;85.79;96448.84;4961585;28;20047;-83
2023/12/09 09:52:29;;;;;;;6.53;5.00;;;;;;;4.42;83.77;96392.56;6019687;23;20994;-81
2023/12/09 10:01:32;;;;;;;5.47;4.35;;;;;;;4.44;84.25;96388.06;4930737;29;20063;-82
2023/12/09 11:17:35;;;;;;;4.63;3.60;;;;;;;5.82;82.28;96274.34;5202412;23;20187;-81
2023/12/09 11:20:09;;;;;;;5.53;3.75;;;;;;;5.87;82.18;96264.31;4940339;29;20055;-81
2023/12/09 11:22:40;;;;;;;7.18;3.58;;;;;;;5.90;82.21;96251.03;4948610;29;20047;-81
2023/12/09 11:25:10;;;;;;;6.35;4.13;;;;;;;5.96;81.93;96250.41;4948404;29;20135;-82
2023/12/09 11:27:58;;;;;;;7.40;5.47;;;;;;;5.99;81.17;96239.72;4944752;29;20120;-81
2023/12/09 11:30:31;;;;;;;8.93;5.45;;;;;;;6.04;81.22;96227.13;4938879;29;20571;-81
2023/12/09 11:33:02;;;;;;;8.77;5.65;;;;;;;6.04;81.30;96221.13;4937221;29;20143;-81
2023/12/09 11:35:35;;;;;;;11.43;6.25;;;;;;;6.05;81.02;96212.38;4937457;29;20411;-82
2023/12/09 11:38:08;;;;;;;8.48;5.10;;;;;;;6.07;81.34;96195.72;4938407;29;20056;-81
2023/12/09 11:40:40;;;;;;;6.20;3.92;;;;;;;6.10;81.30;96185.03;4938306;29;20054;-81
2023/12/09 11:43:10;;;;;;;6.25;4.18;;;;;;;6.14;80.73;96170.81;4937655;29;20047;-81
2023/12/09 11:46:39;;;;;;;9.65;5.60;;;;;;;6.19;80.39;96149.59;4939722;29;20059;-81
2023/12/09 11:55:06;;;;;;;7.28;4.68;;;;;;;6.63;80.81;96131.00;5002720;23;20113;-81
2023/12/09 11:57:33;;;;;;;6.13;4.28;;;;;;;6.78;80.52;96125.91;4928504;29;20563;-80
2023/12/09 12:00:30;;;;;;;8.13;5.15;;;;;;;6.94;79.68;96125.81;4919995;29;20052;-81
2023/12/09 12:03:00;;;;;;;6.65;3.95;;;;;;;7.12;79.44;96117.75;4915388;29;20079;-82
2023/12/09 12:08:16;;;;;;;7.53;4.45;;;;;;;7.37;79.09;96102.03;4923239;29;20063;-81
2023/12/09 12:10:48;;;;;;;6.20;4.68;;;;;;;7.45;78.59;96101.16;4930040;29;20135;-82
2023/12/09 12:13:18;;;;;;;8.18;5.57;;;;;;;7.47;78.42;96083.63;4933316;29;20111;-81
2023/12/09 12:15:46;;;;;;;8.80;6.22;;;;;;;7.45;78.11;96090.78;4930061;28;20052;-81
2023/12/09 12:18:17;;;;;;;8.80;5.63;;;;;;;7.40;77.91;96079.13;4920805;29;20059;-81
2023/12/09 12:20:45;;;;;;;6.50;4.95;;;;;;;7.37;77.41;96069.13;4927001;29;20489;-81
2023/12/09 12:23:13;;;;;;;6.72;4.75;;;;;;;7.33;77.71;96051.47;4928344;29;20052;-81
2023/12/09 12:26:11;;;;;;;7.18;5.18;;;;;;;7.26;77.90;96047.94;4923423;29;20059;-81
2023/12/09 12:28:39;;;;;;;8.30;5.72;;;;;;;7.17;77.99;96042.00;5393650;23;20055;-80
2023/12/09 12:31:27;;;;;;;8.10;5.07;;;;;;;7.09;77.27;96034.31;4943214;29;20047;-81
2023/12/09 12:34:28;;;;;;;8.50;5.20;;;;;;;6.99;77.85;96037.94;4930522;29;20040;-81
2023/12/09 12:37:07;;;;;;;12.30;6.63;;;;;;;6.91;77.95;96037.19;4931254;29;20077;-82
2023/12/09 12:42:23;;;;;;;13.38;7.90;;;;;;;6.78;77.97;96040.34;4935860;29;20119;-80
2023/12/09 13:01:49;;;;;;;9.80;6.20;;;;;;;6.81;79.47;95996.75;5731362;23;20278;-82
2023/12/09 13:04:26;;;;;;;9.45;6.53;;;;;;;6.84;79.60;95990.41;4955765;29;20439;-83
2023/12/09 13:10:14;;;;;;;9.10;6.10;;;;;;;6.80;80.12;95992.53;4951664;29;20079;-82
2023/12/09 13:12:58;;;;;;;8.93;6.85;;;;;;;6.79;79.83;95993.50;4951762;29;20052;-82
2023/12/09 13:15:47;;;;;;;11.30;7.40;;;;;;;6.77;79.83;95979.09;4949916;29;20259;-82
2023/12/09 13:18:27;;;;;;;12.25;8.32;;;;;;;6.73;80.08;95970.06;4952337;29;20080;-82
2023/12/09 13:21:09;;;;;;;14.85;9.50;;;;;;;6.73;79.73;95972.66;4935304;29;20074;-81
2023/12/09 13:23:43;;;;;;;;;;;;;;;6.73;80.05;95967.47;4951817;29;20086;-82
2023/12/09 13:26:18;;;;;;;13.20;8.82;;;;;;;6.66;79.41;95961.38;4934094;29;19923;-82
2023/12/09 13:29:07;;;;;;;11.23;7.50;;;;;;;6.54;79.31;95969.56;4952202;29;20115;-82
2023/12/09 13:32:02;;;;;;;14.80;10.00;;;;;;;6.49;79.94;95964.06;4951779;29;20083;-82
2023/12/09 13:34:38;;;;;;;14.18;9.23;;;;;;;6.48;79.69;95970.22;4952434;29;20138;-82
2023/12/09 13:42:39;;;;;;;14.17;9.63;;;;;;;6.35;80.32;95939.69;4969085;23;20083;-83
2023/12/09 13:53:01;;;;;;;15.77;9.98;;;;;;;6.37;81.13;95911.03;4949523;29;20047;-81
2023/12/09 14:35:07;;;;;;;18.17;10.80;;;;;;;5.92;81.26;95819.38;4873314;29;20057;-82
2023/12/09 14:45:36;;;;;;;16.65;11.50;;;;;;;6.00;81.42;95800.44;4909764;29;20063;-82
2023/12/09 15:06:05;;;;;;;20.85;12.38;;;;;;;6.00;80.99;95765.00;4949188;29;20052;-82
2023/12/09 15:09:13;;;;;;;21.73;12.88;;;;;;;6.00;81.33;95757.22;4937188;29;20415;-82
2023/12/09 15:34:29;;;;;;;19.33;13.27;;;;;;;5.61;83.12;95718.50;4927992;29;20060;-82
2023/12/09 15:44:25;;;;;;;16.42;9.52;;;;;;;5.53;81.64;95711.56;4948549;29;20103;-81
2023/12/09 15:57:15;;;;;;;18.23;12.95;;;;;;;5.56;83.38;95662.09;4934171;29;20059;-78
2023/12/09 15:59:43;;;;;;;21.23;14.27;;;;;;;5.54;83.29;95651.91;4919808;29;20062;-79
2023/12/09 16:02:11;;;;;;;21.02;13.93;;;;;;;5.53;83.46;95636.56;4928073;29;20079;-78
2023/12/09 16:04:38;;;;;;;17.85;13.77;;;;;;;5.49;83.49;95622.41;4934871;29;20055;-79
2023/12/09 16:09:40;;;;;;;17.40;12.20;;;;;;;5.44;84.46;95593.63;5093797;23;20064;-81
2023/12/09 16:12:24;;;;;;;14.90;11.57;;;;;;;5.39;83.77;95568.31;4942824;29;20135;-81
2023/12/09 16:14:53;;;;;;;15.98;11.25;;;;;;;5.36;84.03;95558.31;4899338;29;20068;-80
2023/12/09 16:17:21;;;;;;;16.58;11.57;;;;;;;5.32;84.58;95537.16;4898998;29;20060;-80
2023/12/09 16:19:49;;;;;;;16.30;11.57;;;;;;;5.29;84.58;95534.94;4899880;29;20091;-80
2023/12/09 16:22:17;;;;;;;14.85;10.20;;;;;;;5.27;84.75;95526.56;4899313;29;20059;-80
2023/12/09 16:24:45;;;;;;;14.52;10.38;;;;;;;5.24;85.08;95502.81;4900092;29;20140;-81
2023/12/09 16:27:14;;;;;;;14.23;10.00;;;;;;;5.23;85.22;95489.09;4899945;29;20144;-81
2023/12/09 16:29:43;;;;;;;14.40;9.63;;;;;;;5.22;85.03;95482.31;4901253;29;20104;-80
2023/12/09 16:32:11;;;;;;;11.23;8.98;;;;;;;5.21;85.47;95475.53;4904689;29;20048;-80
2023/12/09 16:34:38;;;;;;;11.32;8.20;;;;;;;5.22;85.34;95482.31;4901490;29;20094;-81
2023/12/09 16:37:06;;;;;;;12.82;8.50;;;;;;;5.21;85.21;95480.72;4901528;29;20092;-81
2023/12/09 16:39:34;;;;;;;12.00;8.25;;;;;;;5.23;85.31;95486.50;4901619;29;20473;-81
2023/12/09 16:42:02;;;;;;;11.40;7.70;;;;;;;5.25;85.24;95474.22;4901596;29;20057;-80
2023/12/09 16:44:30;;;;;;;14.68;8.45;;;;;;;5.26;84.96;95470.63;4901148;29;20084;-82
2023/12/09 16:46:59;;;;;;;9.90;6.80;;;;;;;5.27;85.04;95469.69;4901279;29;20116;-80
2023/12/09 16:49:26;;;;;;;12.43;7.55;;;;;;;5.30;85.38;95455.59;4900837;29;20104;-81
2023/12/09 16:51:55;;;;;;;10.13;7.28;;;;;;;5.33;85.26;95447.47;4901664;29;20132;-80
2023/12/09 16:54:23;;;;;;;11.20;7.30;;;;;;;5.34;84.70;95455.06;4900898;29;20068;-80
2023/12/09 16:56:51;;;;;;;11.40;7.38;;;;;;;5.36;84.98;95445.34;4901758;29;20525;-81
2023/12/09 16:59:19;;;;;;;10.02;7.75;;;;;;;5.39;85.36;95440.78;4898763;29;20112;-77
2023/12/09 17:01:47;;;;;;;9.02;7.35;;;;;;;5.40;85.20;95438.03;4912477;29;20056;-77
2023/12/09 17:04:16;;;;;;;8.02;6.55;;;;;;;5.41;84.59;95406.00;4901085;29;20049;-77
2023/12/09 17:06:44;;;;;;;9.23;7.05;;;;;;;5.40;84.39;95403.59;4899647;29;20433;-77
2023/12/09 17:09:11;;;;;;;10.07;7.70;;;;;;;5.40;84.36;95396.66;4900152;29;20075;-76
2023/12/09 17:11:39;;;;;;;9.40;7.05;;;;;;;5.39;84.54;95392.44;4903564;29;20056;-78
2023/12/09 17:14:07;;;;;;;9.23;7.40;;;;;;;5.40;84.88;95383.72;4902285;29;20081;-77
2023/12/09 17:16:35;;;;;;;9.55;7.20;;;;;;;5.41;84.90;95387.09;4911137;29;20088;-77
2023/12/09 17:19:05;;;;;;;7.25;6.47;;;;;;;5.43;84.79;95375.59;4913739;29;20049;-77
2023/12/09 17:21:34;;;;;;;8.80;6.95;;;;;;;5.46;84.78;95348.56;4900609;29;20449;-78
2023/12/09 17:24:02;;;;;;;9.30;7.55;;;;;;;5.45;84.36;95346.97;4920532;29;20056;-78
2023/12/09 17:26:32;;;;;;;12.00;7.47;;;;;;;5.46;84.86;95338.22;4941289;29;20071;-82
2023/12/09 17:29:00;;;;;;;7.93;6.65;;;;;;;5.45;84.58;95336.63;4939814;29;20040;-77
2023/12/09 17:31:27;;;;;;;8.07;6.85;;;;;;;5.43;84.80;95329.03;4921419;29;20111;-80
2023/12/09 17:33:55;;;;;;;9.88;7.10;;;;;;;5.43;85.15;95328.25;4920206;29;20044;-81
2023/12/09 17:36:25;;;;;;;8.98;7.22;;;;;;;5.44;85.46;95314.31;4919894;29;20056;-78
2023/12/09 17:38:55;;;;;;;10.52;7.07;;;;;;;5.42;85.31;95293.81;4918112;29;20052;-79
2023/12/09 17:41:23;;;;;;;8.70;7.78;;;;;;;5.41;84.91;95281.09;4915570;29;20469;-78
2023/12/09 17:43:50;;;;;;;8.80;6.75;;;;;;;5.37;85.34;95273.66;4917837;29;20044;-79
2023/12/09 17:46:19;;;;;;;7.88;6.25;;;;;;;5.36;85.02;95261.72;4909712;29;20477;-78
2023/12/09 17:48:47;;;;;;;7.38;6.38;;;;;;;5.33;85.04;95264.66;4905858;29;20079;-79
2023/12/09 17:51:15;;;;;;;11.77;7.35;;;;;;;5.33;85.25;95277.59;4917796;29;20134;-79
2023/12/09 17:53:43;;;;;;;7.43;5.88;;;;;;;5.35;85.58;95267.88;4915825;29;20520;-79
2023/12/09 17:56:12;;;;;;;7.38;5.75;;;;;;;5.37;85.31;95259.94;4917847;29;20056;-79
2023/12/09 17:58:40;;;;;;;8.35;6.88;;;;;;;5.37;85.39;95258.16;4911840;29;20121;-79
2023/12/09 18:01:09;;;;;;;11.05;7.28;;;;;;;5.40;85.50;95256.19;4909349;29;20032;-79
2023/12/09 18:03:39;;;;;;;8.73;6.72;;;;;;;5.43;85.53;95245.50;4918134;29;20058;-81
2023/12/09 18:06:07;;;;;;;7.25;6.20;;;;;;;5.44;85.66;95237.53;4918528;29;20052;-78
2023/12/09 18:08:36;;;;;;;7.68;6.20;;;;;;;5.47;85.82;95246.75;4917525;29;20103;-79
2023/12/09 18:11:04;;;;;;;7.97;5.45;;;;;;;5.47;85.50;95241.56;4921318;29;20067;-78
2023/12/09 18:13:33;;;;;;;6.15;5.30;;;;;;;5.46;85.39;95245.13;4935928;29;20056;-79
2023/12/09 18:16:01;;;;;;;7.05;5.60;;;;;;;5.45;85.36;95217.66;4929688;29;20108;-80
2023/12/09 18:18:28;;;;;;;7.90;5.75;;;;;;;5.43;85.31;95225.59;4926985;29;20060;-79
2023/12/09 18:20:56;;;;;;;7.88;5.18;;;;;;;5.43;85.37;95207.50;4919435;29;20067;-80
2023/12/09 18:23:24;;;;;;;7.63;6.15;;;;;;;5.44;85.72;95208.28;4918913;29;20509;-80
2023/12/09 18:25:52;;;;;;;7.00;5.53;;;;;;;5.44;85.55;95193.56;4918473;29;20103;-79
2023/12/09 18:28:19;;;;;;;5.88;5.15;;;;;;;5.44;85.87;95185.03;4917570;29;20509;-80
2023/12/09 18:30:49;;;;;;;5.80;4.88;;;;;;;5.42;85.47;95168.88;4916625;29;20079;-81
2023/12/09 18:33:16;;;;;;;6.43;5.25;;;;;;;5.41;85.00;95159.53;4920693;29;20090;-77
2023/12/09 18:35:45;;;;;;;6.30;5.03;;;;;;;5.39;85.44;95164.09;4921077;29;20050;-80
2023/12/09 18:38:12;;;;;;;6.60;4.60;;;;;;;5.39;85.29;95166.69;4920700;29;20056;-80
2023/12/09 18:40:40;;;;;;;6.07;4.53;;;;;;;5.39;85.34;95172.66;4919715;29;20131;-80
2023/12/09 18:43:09;;;;;;;6.47;5.20;;;;;;;5.41;85.91;95185.41;4916511;29;20084;-78
2023/12/09 18:45:36;;;;;;;5.88;5.20;;;;;;;5.43;85.92;95173.09;4898830;29;20418;-78
2023/12/09 18:48:06;;;;;;;6.95;5.53;;;;;;;5.44;85.67;95187.59;4911328;29;20052;-79
2023/12/09 18:50:34;;;;;;;5.85;5.25;;;;;;;5.45;85.71;95186.63;4916974;29;20079;-78
2023/12/09 18:53:01;;;;;;;6.18;4.95;;;;;;;5.48;86.65;95194.00;4917958;29;20119;-79
2023/12/09 18:55:29;;;;;;;5.20;4.70;;;;;;;5.51;86.42;95173.75;4900493;29;20048;-80
2023/12/09 18:57:57;;;;;;;5.10;4.60;;;;;;;5.51;86.03;95168.59;4897934;29;20489;-77
2023/12/09 19:00:24;;;;;;;4.28;3.67;;;;;;;5.50;85.62;95153.25;4901999;29;20054;-81
2023/12/09 19:02:54;;;;;;;5.70;3.88;;;;;;;5.46;85.31;95141.66;4916978;29;20052;-78
2023/12/09 19:05:23;;;;;;;5.22;4.25;;;;;;;5.45;85.90;95124.56;4919553;29;20044;-81
2023/12/09 19:07:50;;;;;;;4.60;3.80;;;;;;;5.45;85.98;95116.81;4916077;29;20091;-78
2023/12/09 19:10:18;;;;;;;3.50;3.20;;;;;;;5.46;85.71;95095.13;4902400;29;20048;-81
2023/12/09 19:12:46;;;;;;;3.00;2.70;;;;;;;5.47;85.81;95107.09;4901103;29;20603;-81
2023/12/09 19:15:22;;;;;;;3.63;3.22;;;;;;;5.50;85.97;95114.47;4916740;29;20053;-81
2023/12/09 19:17:58;;;;;;;4.80;3.85;;;;;;;5.51;86.25;95114.28;4911403;29;20063;-84
2023/12/09 19:20:34;;;;;;;;;;;;;;;5.57;86.84;95123.06;4938700;29;20056;-81
2023/12/09 19:23:01;;;;;;;3.97;3.50;;;;;;;5.57;85.85;95110.13;4943503;29;19923;-80
2023/12/09 19:25:29;;;;;;;5.18;2.90;;;;;;;5.58;85.92;95119.50;4942674;29;20058;-81
2023/12/09 19:27:58;;;;;;;4.45;3.53;;;;;;;5.61;86.58;95129.47;5303401;23;20062;-81
2023/12/09 19:30:27;;;;;;;5.07;3.15;;;;;;;5.64;86.74;95113.59;4951745;28;20050;-80
2023/12/09 19:33:00;;;;;;;4.10;2.88;;;;;;;5.64;86.36;95105.81;4934862;29;20096;-82
2023/12/09 19:35:39;;;;;;;3.22;2.83;;;;;;;5.68;86.69;95101.06;5032837;23;20048;-81
2023/12/09 19:38:08;;;;;;;3.10;2.90;;;;;;;5.72;87.25;95100.50;4923874;29;20112;-81
2023/12/09 19:40:35;;;;;;;2.42;2.20;;;;;;;5.74;86.83;95092.56;4927594;29;20390;-81
2023/12/09 19:43:03;;;;;;;5.00;2.53;;;;;;;5.77;86.25;95107.69;4917561;29;20052;-81
2023/12/09 19:45:33;;;;;;;3.60;3.20;;;;;;;5.78;86.17;95104.13;4901760;29;20073;-80
2023/12/09 19:48:00;;;;;;;4.03;2.95;;;;;;;5.81;86.00;95092.59;4901597;29;20052;-80
2023/12/09 19:50:28;;;;;;;3.42;2.45;;;;;;;5.81;85.79;95108.13;4902175;29;20468;-81
2023/12/09 19:52:59;;;;;;;3.08;2.20;;;;;;;5.81;86.60;95111.50;4893340;29;20071;-79